Time;durP1;ratioP1;P1;durP2;ratioP2;P2;SDS_P1;SDS_P2;PMS_P1;PMS_P2;Temp;Humidity;BMP_temperature;BMP_pressure;BME280_temperature;BME280_humidity;BME280_pressure;Samples;Min_cycle;Max_cycle;Signal;HPM_P1;HPM_P2
2021/03/03 00:02:17;;;;;;;22.65;9.32;;;9.80;71.00;;;9.54;60.16;101858.59;4935469;29;20403;-84
2021/03/03 00:04:44;;;;;;;23.70;10.95;;;9.70;70.40;;;9.54;59.89;101859.44;4935247;29;20495;-84
2021/03/03 00:07:13;;;;;;;24.15;10.73;;;9.70;70.20;;;9.54;60.05;101864.03;4933134;29;20043;-84
2021/03/03 00:09:39;;;;;;;22.38;10.43;;;9.80;70.20;;;9.54;60.39;101858.59;4934763;29;20571;-85
2021/03/03 00:12:08;;;;;;;21.35;10.70;;;9.80;70.50;;;9.53;59.74;101857.72;4935026;29;20051;-84
2021/03/03 00:14:36;;;;;;;26.70;10.27;;;9.80;70.30;;;9.55;59.89;101860.31;4935156;29;20126;-84
2021/03/03 00:17:05;;;;;;;26.63;10.70;;;9.80;70.20;;;9.54;60.14;101856.75;4935379;29;20048;-84
2021/03/03 00:19:31;;;;;;;23.70;10.93;;;9.80;70.00;;;9.55;60.39;101861.16;4935575;29;20058;-84
2021/03/03 00:21:58;;;;;;;22.52;9.77;;;9.80;70.60;;;9.55;59.92;101860.31;4933959;29;20158;-84
2021/03/03 00:24:26;;;;;;;21.10;10.73;;;9.80;70.40;;;9.54;60.15;101855.88;4950092;29;20110;-84
2021/03/03 00:26:52;;;;;;;22.08;9.98;;;9.70;70.30;;;9.54;60.32;101856.75;4934894;29;20047;-84
2021/03/03 00:29:19;;;;;;;26.17;10.60;;;9.80;70.00;;;9.55;60.10;101854.88;4935627;29;20046;-84
2021/03/03 00:31:46;;;;;;;25.63;10.38;;;9.80;70.70;;;9.56;60.24;101856.59;4934510;29;20047;-84
2021/03/03 00:34:13;;;;;;;23.92;10.55;;;9.70;70.30;;;9.56;60.18;101856.59;4935594;29;20055;-84
2021/03/03 00:36:39;;;;;;;22.13;10.07;;;9.90;70.80;;;9.55;60.23;101850.28;4935002;29;20071;-84
2021/03/03 00:39:06;;;;;;;23.30;10.55;;;9.70;71.10;;;9.54;60.20;101859.44;4935405;29;20655;-84
2021/03/03 00:41:34;;;;;;;24.00;9.93;;;9.70;70.10;;;9.56;59.91;101859.31;4934922;29;20123;-84
2021/03/03 00:44:00;;;;;;;24.50;10.23;;;9.80;70.10;;;9.55;59.62;101857.59;4935004;29;20055;-84
2021/03/03 00:46:27;;;;;;;22.38;10.85;;;9.80;70.00;;;9.54;60.26;101861.31;4949403;29;20748;-84
2021/03/03 00:48:54;;;;;;;22.30;10.05;;;9.70;70.10;;;9.56;60.30;101856.59;4948349;28;20048;-84
2021/03/03 00:51:22;;;;;;;26.25;10.80;;;9.70;70.30;;;9.56;59.91;101862.03;4934383;29;20098;-84
2021/03/03 00:53:50;;;;;;;24.95;9.90;;;9.80;70.10;;;9.57;60.15;101859.16;4948655;28;20418;-84
2021/03/03 00:56:17;;;;;;;20.90;9.90;;;9.80;70.30;;;9.56;60.16;101862.03;4948410;28;20040;-85
2021/03/03 00:58:44;;;;;;;24.48;10.20;;;9.80;70.20;;;9.57;59.84;101856.44;4949158;29;20588;-85
2021/03/03 01:01:11;;;;;;;20.77;10.65;;;9.80;70.00;;;9.57;60.16;101848.28;4935070;29;20518;-84
2021/03/03 01:03:40;;;;;;;23.77;10.50;;;9.80;70.80;;;9.58;59.88;101857.31;4934593;29;20048;-84
2021/03/03 01:06:27;;;;;;;22.75;11.02;;;9.80;70.00;;;9.56;60.57;101854.72;4932947;29;20052;-84
2021/03/03 01:08:54;;;;;;;21.55;10.82;;;9.80;70.50;;;9.58;60.84;101860.03;4933925;29;20517;-85
2021/03/03 01:11:22;;;;;;;21.90;10.57;;;9.80;71.00;;;9.57;60.29;101852.88;4932735;29;20518;-84
2021/03/03 01:13:53;;;;;;;26.08;11.02;;;9.70;70.80;;;9.56;60.54;101840.28;4932791;29;20059;-84
2021/03/03 01:16:24;;;;;;;21.33;10.63;;;9.70;70.70;;;9.56;60.62;101853.88;4932736;29;20044;-84
2021/03/03 01:18:57;;;;;;;22.80;10.30;;;9.70;70.80;;;9.56;60.87;101853.88;4932299;29;20048;-84
2021/03/03 01:21:23;;;;;;;19.98;10.18;;;9.70;71.50;;;9.56;60.01;101846.56;4934710;29;20052;-84
2021/03/03 01:23:50;;;;;;;26.55;11.70;;;9.70;70.60;;;9.57;60.50;101847.44;4932228;29;20044;-84
2021/03/03 01:26:17;;;;;;;23.05;11.00;;;9.70;70.00;;;9.55;60.19;101839.41;4933230;29;20120;-84
2021/03/03 01:28:44;;;;;;;26.77;10.05;;;9.70;70.70;;;9.56;59.86;101840.28;4931377;29;20058;-84
2021/03/03 01:31:11;;;;;;;20.75;11.07;;;9.70;70.00;;;9.55;60.68;101844.00;4932499;29;20605;-84
2021/03/03 01:33:38;;;;;;;20.55;10.00;;;9.70;70.60;;;9.56;60.73;101840.28;4929816;29;20043;-84
2021/03/03 01:36:05;;;;;;;21.27;10.45;;;9.70;71.10;;;9.55;61.01;101839.41;4935566;29;20516;-84
2021/03/03 01:38:32;;;;;;;22.27;10.70;;;9.70;71.80;;;9.48;60.80;101842.84;4943676;28;20066;-85
2021/03/03 01:40:59;;;;;;;22.33;10.77;;;9.60;72.30;;;9.42;61.39;101840.72;4951129;28;20053;-84
2021/03/03 01:43:30;;;;;;;24.00;10.57;;;9.50;73.00;;;9.41;61.04;101841.75;4948365;29;20490;-84
2021/03/03 01:45:57;;;;;;;24.83;11.48;;;9.40;72.90;;;9.39;61.02;101834.59;4941369;29;20043;-84
2021/03/03 01:48:24;;;;;;;25.30;9.85;;;9.40;73.10;;;9.36;61.14;101840.28;4933586;29;20122;-85
2021/03/03 01:50:52;;;;;;;23.83;10.52;;;9.30;73.00;;;9.29;61.17;101833.75;4933579;29;20052;-84
2021/03/03 01:53:19;;;;;;;21.55;10.48;;;9.20;73.60;;;9.23;61.50;101834.28;4934202;29;20082;-84
2021/03/03 01:55:47;;;;;;;23.38;10.02;;;9.00;74.00;;;9.15;60.99;101826.84;4933489;29;20059;-84
2021/03/03 01:58:14;;;;;;;20.52;10.38;;;8.90;74.40;;;9.09;61.52;101829.31;4933191;29;20082;-84
2021/03/03 02:00:41;;;;;;;20.92;10.60;;;8.80;74.90;;;9.00;61.65;101825.56;4933875;29;20051;-84
2021/03/03 02:03:08;;;;;;;23.52;10.45;;;8.70;75.30;;;8.98;61.72;101828.41;4933797;29;20089;-84
2021/03/03 02:05:36;;;;;;;22.15;10.70;;;8.70;75.50;;;8.96;62.30;101816.84;4933188;29;20106;-84
2021/03/03 02:08:08;;;;;;;22.25;10.50;;;8.60;75.90;;;8.92;62.63;101815.41;4933717;29;20059;-84
2021/03/03 02:10:44;;;;;;;21.98;10.07;;;8.60;76.30;;;8.90;62.21;101817.41;4933143;29;20048;-84
2021/03/03 02:13:17;;;;;;;23.92;10.85;;;8.70;76.40;;;8.88;62.01;101819.41;4932436;29;20087;-84
2021/03/03 02:15:49;;;;;;;22.50;10.68;;;8.50;76.10;;;8.85;61.91;101819.69;4933376;29;20055;-84
2021/03/03 02:18:17;;;;;;;23.50;10.07;;;8.70;76.50;;;8.78;62.08;101816.69;4932983;29;20122;-85
2021/03/03 02:20:54;;;;;;;22.13;10.18;;;8.50;76.50;;;8.77;61.98;101811.41;4932296;29;20495;-84
2021/03/03 02:23:35;;;;;;;25.25;11.23;;;8.30;76.70;;;8.67;62.58;101805.97;4933679;29;20040;-84
2021/03/03 02:26:04;;;;;;;26.50;10.90;;;8.30;76.80;;;8.65;62.46;101798.97;4932965;29;20043;-84
2021/03/03 02:28:31;;;;;;;25.00;10.60;;;8.20;76.90;;;8.59;62.54;101814.81;4933801;29;20093;-84
2021/03/03 02:30:59;;;;;;;24.92;10.32;;;8.10;77.40;;;8.57;63.05;101808.66;4932964;29;20039;-84
2021/03/03 02:33:27;;;;;;;23.77;10.90;;;8.10;77.50;;;8.54;63.17;101805.38;4932670;29;20127;-84
2021/03/03 02:35:54;;;;;;;22.95;10.52;;;8.10;77.50;;;8.51;63.24;101803.81;4947029;29;20087;-84
2021/03/03 02:38:21;;;;;;;20.77;10.23;;;8.10;77.60;;;8.53;63.45;101803.63;4932621;29;20054;-84
2021/03/03 02:40:49;;;;;;;23.48;11.70;;;8.10;77.90;;;8.48;62.86;101795.09;4933292;29;20122;-84
2021/03/03 02:43:19;;;;;;;23.88;11.02;;;8.00;77.70;;;8.43;62.99;101798.19;4933248;29;20122;-84
2021/03/03 02:45:48;;;;;;;23.83;10.98;;;8.00;77.80;;;8.41;63.26;101789.31;4933133;29;20047;-84
2021/03/03 02:48:16;;;;;;;22.52;10.50;;;7.90;77.90;;;8.43;62.95;101787.34;4917428;29;20127;-84
2021/03/03 02:50:44;;;;;;;19.35;10.05;;;7.90;78.10;;;8.35;63.49;101789.88;4925839;29;20103;-84
2021/03/03 02:53:12;;;;;;;23.33;10.90;;;7.80;78.20;;;8.32;63.06;101792.84;4932805;29;20521;-84
2021/03/03 02:55:39;;;;;;;21.17;10.68;;;7.70;78.60;;;8.27;63.36;101789.72;4932291;29;20058;-84
2021/03/03 02:58:06;;;;;;;23.75;11.13;;;7.80;78.90;;;8.21;63.73;101783.00;4932929;29;20122;-84
2021/03/03 03:00:38;;;;;;;24.35;10.43;;;7.60;79.10;;;8.22;63.32;101780.16;4933197;29;20130;-84
2021/03/03 03:03:18;;;;;;;25.30;10.50;;;7.60;79.20;;;8.20;63.94;101778.53;4933304;29;20047;-84
2021/03/03 03:05:52;;;;;;;25.25;11.63;;;7.60;79.40;;;8.16;64.01;101769.81;4932898;29;20122;-84
2021/03/03 03:08:21;;;;;;;22.42;10.80;;;7.60;79.50;;;8.17;63.73;101779.69;4932233;29;20055;-84
2021/03/03 03:10:48;;;;;;;20.55;10.70;;;7.60;79.50;;;8.17;63.96;101773.41;4932885;29;20062;-84
2021/03/03 03:13:19;;;;;;;22.52;11.63;;;7.60;79.50;;;8.15;64.06;101781.69;4946872;29;20058;-84
2021/03/03 03:15:49;;;;;;;27.70;11.93;;;7.60;79.70;;;8.14;63.86;101773.69;4933035;29;20131;-84
2021/03/03 03:18:21;;;;;;;23.48;10.45;;;7.60;79.40;;;8.12;63.70;101767.53;4950340;29;20426;-84
2021/03/03 03:20:50;;;;;;;21.35;11.27;;;7.50;79.50;;;8.07;63.62;101770.66;4951539;29;20565;-84
2021/03/03 03:23:20;;;;;;;25.40;11.93;;;7.40;79.50;;;8.08;64.32;101766.09;4937422;29;20557;-84
2021/03/03 03:25:47;;;;;;;26.23;12.15;;;7.40;79.80;;;8.01;64.03;101771.19;4937705;29;20498;-84
2021/03/03 03:28:15;;;;;;;26.38;11.80;;;7.40;80.10;;;8.00;64.36;101761.38;4937634;29;20107;-84
2021/03/03 03:30:42;;;;;;;24.73;12.90;;;7.40;80.00;;;7.95;64.22;101769.91;4937392;29;20122;-83
2021/03/03 03:33:12;;;;;;;24.45;11.55;;;7.40;80.00;;;7.95;64.37;101769.03;4938364;29;20122;-85
2021/03/03 03:35:40;;;;;;;25.88;12.23;;;7.40;80.10;;;7.93;64.00;101771.03;4937653;29;20043;-84
2021/03/03 03:38:07;;;;;;;29.23;12.45;;;7.30;80.10;;;7.93;64.48;101771.03;4936189;29;20248;-84
2021/03/03 03:40:33;;;;;;;24.35;11.88;;;7.30;80.20;;;7.91;64.50;101767.59;4938123;29;20142;-84
2021/03/03 03:43:01;;;;;;;21.85;11.23;;;7.30;80.40;;;7.90;64.59;101768.59;4938259;29;20071;-84
2021/03/03 03:45:29;;;;;;;24.10;12.00;;;7.20;80.30;;;7.86;64.11;101770.72;4938150;29;20130;-84
2021/03/03 03:47:57;;;;;;;25.15;12.23;;;7.20;80.40;;;7.83;64.65;101769.13;4937547;29;20095;-84
2021/03/03 03:50:27;;;;;;;27.67;12.90;;;7.20;80.60;;;7.82;64.43;101771.97;4936042;29;20058;-84
2021/03/03 03:52:55;;;;;;;28.10;12.40;;;7.20;80.80;;;7.82;64.07;101772.84;4936426;29;20612;-84
2021/03/03 03:55:29;;;;;;;24.45;12.82;;;7.10;80.50;;;7.79;65.06;101767.69;4936050;29;20048;-85
2021/03/03 03:57:56;;;;;;;27.40;12.00;;;7.10;80.90;;;7.83;64.23;101777.28;4936918;29;20035;-84
2021/03/03 04:00:23;;;;;;;27.17;12.23;;;7.10;80.80;;;7.78;64.14;101770.53;4937065;29;20057;-84
2021/03/03 04:02:50;;;;;;;27.60;11.98;;;7.10;80.90;;;7.68;65.10;101770.50;4937302;29;20075;-84
2021/03/03 04:05:18;;;;;;;23.42;11.60;;;7.00;81.10;;;7.66;65.01;101771.63;4936630;29;20040;-84
2021/03/03 04:07:46;;;;;;;25.60;12.27;;;7.00;81.30;;;7.63;64.58;101775.44;4950362;28;20222;-83
2021/03/03 04:10:17;;;;;;;26.30;12.93;;;6.90;81.70;;;7.61;64.88;101772.00;4936762;29;20653;-84
2021/03/03 04:12:43;;;;;;;23.85;11.63;;;6.80;81.70;;;7.58;64.93;101766.88;4936523;29;20048;-84
2021/03/03 04:15:12;;;;;;;27.00;11.75;;;6.80;81.80;;;7.54;65.05;101771.72;4936039;29;20126;-83
2021/03/03 04:17:40;;;;;;;30.55;12.63;;;6.80;81.90;;;7.53;65.19;101767.28;4936063;29;20537;-84
2021/03/03 04:20:09;;;;;;;22.80;11.73;;;6.80;82.10;;;7.52;65.02;101762.84;4935914;29;20143;-85
2021/03/03 04:22:37;;;;;;;24.60;12.10;;;6.80;82.30;;;7.47;65.01;101766.97;4936328;29;20055;-84
2021/03/03 04:25:09;;;;;;;23.08;11.77;;;6.70;82.10;;;7.41;65.33;101763.78;4934814;29;20055;-84
2021/03/03 04:27:37;;;;;;;27.08;12.68;;;6.70;82.40;;;7.44;66.14;101763.53;4934953;29;20047;-84
2021/03/03 04:30:05;;;;;;;26.65;12.70;;;6.80;82.50;;;7.46;66.14;101770.66;4935874;29;20522;-84
2021/03/03 04:32:32;;;;;;;25.80;12.80;;;6.80;82.30;;;7.43;65.59;101774.50;4936090;29;20118;-85
2021/03/03 04:34:58;;;;;;;26.92;12.70;;;6.80;82.10;;;7.39;65.97;101764.91;4935807;29;20048;-84
2021/03/03 04:37:26;;;;;;;26.83;11.65;;;6.80;82.30;;;7.44;66.00;101768.94;4935568;29;20402;-84
2021/03/03 04:39:52;;;;;;;27.92;12.25;;;6.80;82.30;;;7.42;66.11;101770.94;4935595;29;20047;-84
2021/03/03 04:42:20;;;;;;;27.10;12.93;;;6.70;82.40;;;7.43;65.70;101756.38;4935502;29;20054;-84
2021/03/03 04:44:47;;;;;;;24.80;11.65;;;6.70;82.40;;;7.40;65.74;101759.34;4936344;29;20407;-84
2021/03/03 04:47:14;;;;;;;23.67;11.73;;;6.70;82.70;;;7.35;65.61;101767.03;4935553;29;20581;-84
2021/03/03 04:49:40;;;;;;;24.83;12.18;;;6.70;82.80;;;7.29;66.13;101759.44;4935473;29;20050;-84
2021/03/03 04:52:07;;;;;;;24.33;12.07;;;6.70;82.70;;;7.33;65.98;101766.31;4935670;29;20124;-84
2021/03/03 04:54:34;;;;;;;25.73;12.23;;;6.70;83.00;;;7.33;65.92;101760.91;4934745;29;20696;-84
2021/03/03 04:57:02;;;;;;;20.23;11.32;;;6.60;83.00;;;7.30;66.37;101755.72;4934974;29;20141;-84
2021/03/03 04:59:29;;;;;;;25.10;12.32;;;6.60;82.90;;;7.34;66.34;101759.03;4934969;29;20103;-85
2021/03/03 05:01:56;;;;;;;26.45;12.18;;;6.60;83.00;;;7.32;65.98;101759.16;4935739;29;20126;-84
2021/03/03 05:04:23;;;;;;;26.80;12.60;;;6.60;83.20;;;7.26;66.01;101754.28;4936106;29;20094;-84
2021/03/03 05:06:50;;;;;;;26.65;12.57;;;6.60;83.30;;;7.27;66.22;101761.41;4935373;29;20131;-84
2021/03/03 05:09:16;;;;;;;25.63;11.77;;;6.60;83.40;;;7.25;66.71;101757.97;4934883;29;20044;-84
2021/03/03 05:11:43;;;;;;;25.60;12.15;;;6.50;83.40;;;7.26;66.08;101762.41;4934671;29;20067;-83
2021/03/03 05:14:10;;;;;;;22.92;11.43;;;6.60;83.40;;;7.23;66.98;101757.25;4934407;29;20483;-83
2021/03/03 05:16:38;;;;;;;22.33;11.55;;;6.60;83.80;;;7.23;67.07;101755.41;4934008;29;20125;-84
2021/03/03 05:19:05;;;;;;;26.23;11.95;;;6.70;83.90;;;7.26;66.36;101751.56;4936657;29;20079;-85
2021/03/03 05:21:31;;;;;;;28.25;12.20;;;6.50;83.80;;;7.21;67.14;101754.66;4934907;29;20052;-84
2021/03/03 05:23:58;;;;;;;27.85;12.15;;;6.50;83.90;;;7.19;66.75;101748.53;4934731;29;20074;-84
2021/03/03 05:26:25;;;;;;;27.40;12.38;;;6.50;83.70;;;7.19;67.12;101744.97;4934348;29;20455;-84
2021/03/03 05:28:52;;;;;;;25.23;11.57;;;6.50;84.10;;;7.17;67.20;101744.25;4934539;29;20056;-83
2021/03/03 05:31:18;;;;;;;27.15;11.90;;;6.50;84.00;;;7.17;66.69;101746.94;4934409;29;20077;-84
2021/03/03 05:33:46;;;;;;;24.00;11.93;;;6.50;84.00;;;7.13;67.11;101746.34;4934824;29;20051;-84
2021/03/03 05:36:15;;;;;;;22.73;11.32;;;6.50;84.20;;;7.16;67.24;101748.81;4934137;29;20472;-84
2021/03/03 05:38:42;;;;;;;22.52;11.05;;;6.50;84.50;;;7.14;66.93;101745.38;4932177;29;20074;-84
2021/03/03 05:41:10;;;;;;;22.63;11.00;;;6.40;84.10;;;7.14;66.82;101749.91;4912683;29;20459;-84
2021/03/03 05:43:38;;;;;;;28.02;12.25;;;6.40;84.20;;;7.12;66.51;101741.06;4915345;29;20127;-84
2021/03/03 05:46:06;;;;;;;27.88;12.00;;;6.40;84.10;;;7.07;66.76;101746.03;4914982;29;20050;-84
2021/03/03 05:48:37;;;;;;;24.67;11.60;;;6.40;84.10;;;7.09;66.88;101747.59;4914736;29;20051;-84
2021/03/03 05:51:06;;;;;;;27.08;11.80;;;6.40;84.20;;;7.03;67.36;101742.72;4929167;29;20502;-84
2021/03/03 05:53:34;;;;;;;27.45;12.20;;;6.40;84.20;;;7.10;67.00;101745.75;4929285;29;20040;-83
2021/03/03 05:56:04;;;;;;;24.52;11.95;;;6.40;84.60;;;7.08;67.32;101739.63;4933751;29;20047;-84
2021/03/03 05:58:33;;;;;;;24.05;11.95;;;6.40;84.20;;;7.10;67.22;101737.63;4934236;29;20477;-84
2021/03/03 06:01:01;;;;;;;24.30;11.90;;;6.40;84.30;;;7.05;67.30;101729.91;4935269;29;20135;-84
2021/03/03 06:03:29;;;;;;;25.13;10.95;;;6.40;84.60;;;7.02;67.55;101741.00;4934872;29;20553;-85
2021/03/03 06:05:57;;;;;;;26.05;12.15;;;6.40;84.50;;;7.03;67.86;101742.72;4933550;29;20059;-84
2021/03/03 06:08:26;;;;;;;23.42;11.93;;;6.40;84.60;;;7.00;67.26;101743.81;4921395;29;20139;-84
2021/03/03 06:10:54;;;;;;;22.15;11.48;;;6.40;84.50;;;7.01;67.50;101742.84;4934396;29;20101;-85
2021/03/03 06:13:21;;;;;;;23.02;11.35;;;6.30;84.50;;;7.00;67.44;101740.28;4934264;29;20502;-85
2021/03/03 06:15:48;;;;;;;22.13;11.32;;;6.30;84.60;;;6.99;67.20;101736.72;4932872;29;20070;-84
2021/03/03 06:18:18;;;;;;;26.85;12.65;;;6.20;84.60;;;6.96;67.17;101745.09;4933853;29;20126;-84
2021/03/03 06:20:47;;;;;;;23.55;10.95;;;6.30;84.60;;;6.92;67.41;101737.38;4935253;29;20075;-85
2021/03/03 06:23:17;;;;;;;21.90;10.95;;;6.20;84.70;;;6.89;67.83;101735.75;4934959;29;20071;-85
2021/03/03 06:25:48;;;;;;;23.42;11.82;;;6.20;84.80;;;6.96;68.10;101734.25;4934386;29;20040;-84
2021/03/03 06:28:34;;;;;;;23.73;11.93;;;6.20;84.90;;;6.91;68.11;101744.63;4933324;29;20118;-81
2021/03/03 06:31:02;;;;;;;23.95;12.02;;;6.20;84.70;;;6.92;67.80;101734.66;4933288;29;20047;-80
2021/03/03 06:33:29;;;;;;;25.48;12.52;;;6.20;84.90;;;6.91;67.64;101738.34;4931825;29;20060;-82
2021/03/03 06:35:56;;;;;;;23.45;11.55;;;6.20;84.90;;;6.91;67.98;101744.63;4932950;29;20111;-82
2021/03/03 06:38:31;;;;;;;21.05;11.38;;;6.20;85.00;;;6.91;67.37;101744.63;4932919;29;20066;-81
2021/03/03 06:41:06;;;;;;;27.17;11.70;;;6.20;85.00;;;6.90;67.60;101748.31;4933658;29;20123;-80
2021/03/03 06:43:33;;;;;;;21.63;10.85;;;6.20;85.00;;;6.92;67.66;101737.38;4935887;29;20089;-80
2021/03/03 06:46:17;;;;;;;23.58;11.05;;;6.20;84.90;;;6.87;67.83;101740.44;4935534;29;20123;-79
2021/03/03 06:48:46;;;;;;;25.55;10.65;;;6.10;85.10;;;6.85;68.00;101747.84;4937259;29;20067;-78
2021/03/03 06:51:21;;;;;;;23.17;10.73;;;6.10;85.30;;;6.84;67.80;101738.03;4933779;29;20111;-78
2021/03/03 06:53:48;;;;;;;27.17;13.00;;;6.10;85.30;;;6.90;67.91;101742.91;4932178;29;20103;-79
2021/03/03 06:56:36;;;;;;;20.17;11.77;;;6.20;85.30;;;6.93;68.06;101739.06;4934723;29;20102;-78
2021/03/03 06:59:18;;;;;;;25.65;12.07;;;6.30;85.20;;;6.89;68.49;101741.19;4936094;29;20063;-79
2021/03/03 07:01:46;;;;;;;24.38;12.27;;;6.40;84.90;;;6.93;68.19;101744.47;4937542;29;20051;-78
2021/03/03 07:04:23;;;;;;;27.88;11.90;;;6.40;84.80;;;6.98;68.11;101748.50;4937091;29;20087;-80
2021/03/03 07:06:50;;;;;;;30.55;12.70;;;6.50;84.70;;;6.98;68.67;101744.97;4927018;29;20123;-82
2021/03/03 07:09:18;;;;;;;29.23;12.65;;;6.60;84.60;;;7.00;67.96;101743.81;4935683;29;20070;-81
2021/03/03 07:11:45;;;;;;;26.13;12.02;;;6.70;84.30;;;7.05;68.46;101755.13;4932491;29;20111;-80
2021/03/03 07:14:18;;;;;;;29.05;12.30;;;6.70;84.30;;;7.08;68.64;101762.13;4932174;29;20040;-81
2021/03/03 07:17:03;;;;;;;25.70;11.82;;;6.80;84.50;;;7.12;68.67;101762.72;4933232;29;20050;-81
2021/03/03 07:19:30;;;;;;;26.58;11.63;;;6.80;84.30;;;7.11;68.86;101761.03;4927667;29;20073;-80
2021/03/03 07:21:56;;;;;;;23.42;11.55;;;6.80;83.90;;;7.12;68.88;101773.53;4923742;29;20407;-80
2021/03/03 07:24:25;;;;;;;25.83;12.07;;;6.80;84.20;;;7.10;68.61;101768.28;4932845;29;20051;-81
2021/03/03 07:26:53;;;;;;;23.10;10.73;;;6.80;84.20;;;7.12;68.58;101763.59;4932425;29;20044;-81
2021/03/03 07:29:20;;;;;;;23.30;11.45;;;6.80;84.40;;;7.11;68.92;101761.03;4926850;29;20042;-81
2021/03/03 07:31:46;;;;;;;23.88;11.55;;;6.90;84.30;;;7.15;69.08;101765.19;4942658;29;20105;-80
2021/03/03 07:34:13;;;;;;;32.67;12.55;;;6.90;84.20;;;7.16;68.69;101759.63;4938853;28;20058;-81
2021/03/03 07:36:41;;;;;;;29.42;12.02;;;7.00;84.00;;;7.20;68.87;101760.22;4938278;28;20043;-81
2021/03/03 07:39:10;;;;;;;28.30;12.02;;;7.00;83.90;;;7.24;69.39;101750.84;4940723;28;20071;-81
2021/03/03 07:41:44;;;;;;;26.30;11.73;;;7.10;84.20;;;7.27;69.41;101755.13;4947960;29;20506;-81
2021/03/03 07:44:16;;;;;;;30.95;13.85;;;7.10;84.30;;;7.30;69.15;101761.16;4945300;28;20050;-81
2021/03/03 07:46:46;;;;;;;32.95;13.43;;;7.20;84.10;;;7.33;69.38;101755.47;4948941;28;20079;-79
2021/03/03 07:49:14;;;;;;;32.03;12.98;;;7.30;83.60;;;7.34;69.34;101757.19;4946641;28;20035;-80
2021/03/03 07:51:41;;;;;;;33.55;13.70;;;7.30;83.40;;;7.37;69.11;101762.34;4944853;28;20046;-79
2021/03/03 07:54:11;;;;;;;36.50;13.95;;;7.40;83.10;;;7.37;68.74;101759.63;4952472;28;20062;-79
2021/03/03 07:56:39;;;;;;;43.17;14.05;;;7.40;82.90;;;7.42;69.30;101764.63;4952927;28;20058;-79
2021/03/03 07:59:07;;;;;;;31.33;12.48;;;7.50;83.20;;;7.45;69.69;101769.78;4953388;28;20045;-79
2021/03/03 08:01:36;;;;;;;31.27;13.88;;;7.60;83.00;;;7.52;69.22;101759.28;4952878;28;20062;-79
2021/03/03 08:04:03;;;;;;;33.65;13.50;;;7.80;82.60;;;7.59;69.09;101771.28;4939198;29;20302;-79
2021/03/03 08:06:36;;;;;;;31.23;13.80;;;7.90;82.10;;;7.68;69.60;101769.63;4938313;29;20134;-79
2021/03/03 08:09:18;;;;;;;32.00;12.65;;;8.10;81.50;;;7.76;69.26;101770.66;4940175;29;20054;-79
2021/03/03 08:12:02;;;;;;;31.65;13.00;;;8.30;81.20;;;7.85;68.58;101776.28;4939180;29;20052;-79
2021/03/03 08:14:38;;;;;;;30.83;12.80;;;8.60;80.00;;;7.91;69.01;101776.59;4935307;29;20043;-79
2021/03/03 08:17:10;;;;;;;32.50;12.80;;;8.80;79.70;;;8.01;68.73;101779.34;4939554;29;20558;-79
2021/03/03 08:20:02;;;;;;;29.55;12.63;;;9.00;78.30;;;8.11;67.17;101782.97;4939718;29;20078;-79
2021/03/03 08:22:50;;;;;;;;;;;9.20;76.40;;;8.19;66.73;101779.56;4940054;29;20047;-80
2021/03/03 08:25:44;;;;;;;31.90;12.50;;;9.40;75.70;;;8.27;66.56;101782.44;4939797;29;19949;-80
2021/03/03 08:28:32;;;;;;;31.02;12.07;;;9.60;74.50;;;8.35;66.24;101777.16;4940757;29;20055;-80
2021/03/03 08:31:30;;;;;;;29.48;12.30;;;9.70;74.10;;;8.43;65.75;101781.06;4940773;29;20509;-83
2021/03/03 08:34:01;;;;;;;34.75;12.77;;;9.90;73.00;;;8.51;65.62;101775.78;4940910;29;20726;-80
2021/03/03 08:37:04;;;;;;;28.02;12.57;;;10.00;72.30;;;8.59;65.67;101776.81;4937644;29;20044;-81
2021/03/03 08:39:40;;;;;;;32.78;12.85;;;10.10;72.50;;;8.67;65.13;101778.81;4950022;29;20130;-81
2021/03/03 08:42:34;;;;;;;29.80;12.45;;;10.20;71.90;;;8.74;64.85;101768.28;4952343;28;20039;-81
2021/03/03 08:45:13;;;;;;;29.27;12.65;;;10.30;71.60;;;8.82;65.17;101771.13;4960164;28;20051;-81
2021/03/03 08:47:58;;;;;;;34.83;13.02;;;10.70;71.50;;;8.89;65.79;101776.84;4960682;28;20083;-80
2021/03/03 08:50:45;;;;;;;34.72;12.95;;;10.50;71.60;;;8.94;65.50;101769.97;4946827;28;20070;-81
2021/03/03 08:53:31;;;;;;;31.08;13.02;;;10.60;71.20;;;9.02;65.15;101773.84;4937945;29;20517;-81
2021/03/03 08:56:20;;;;;;;33.10;12.93;;;10.70;70.90;;;9.08;63.95;101767.81;4944287;29;20058;-81
2021/03/03 08:58:52;;;;;;;30.10;12.50;;;10.80;69.90;;;9.14;64.60;101767.28;4949456;29;20051;-80
2021/03/03 09:01:20;;;;;;;30.02;11.77;;;10.90;70.20;;;9.20;64.71;101758.53;4940116;29;20063;-80
2021/03/03 09:03:52;;;;;;;31.92;14.40;;;11.00;70.00;;;9.24;64.37;101759.97;4941355;29;20079;-81
2021/03/03 09:06:26;;;;;;;27.58;13.50;;;11.10;70.00;;;9.30;64.23;101747.66;4940842;29;20036;-81
2021/03/03 09:09:01;;;;;;;33.00;13.50;;;11.10;69.40;;;9.37;64.22;101741.50;4948311;29;20302;-80
2021/03/03 09:11:27;;;;;;;32.33;13.48;;;11.20;69.00;;;9.41;64.17;101741.22;4952143;28;20051;-80
2021/03/03 09:13:57;;;;;;;36.10;13.48;;;11.30;69.00;;;9.48;64.21;101745.03;4948653;29;20071;-81
2021/03/03 09:16:24;;;;;;;32.10;14.20;;;11.40;69.00;;;9.54;64.03;101739.03;4954976;29;20086;-81
2021/03/03 09:19:08;;;;;;;32.30;13.27;;;11.40;68.70;;;9.60;63.51;101743.88;4944425;29;20055;-81
2021/03/03 09:21:36;;;;;;;30.15;13.60;;;11.50;68.30;;;9.63;63.48;101749.00;4947999;29;20046;-80
2021/03/03 09:24:26;;;;;;;29.60;12.88;;;11.60;67.90;;;9.69;63.30;101742.97;4959594;28;20079;-81
2021/03/03 09:27:05;;;;;;;30.67;13.68;;;11.70;67.70;;;9.85;62.86;101745.06;4948665;29;20064;-81
2021/03/03 09:29:34;;;;;;;29.85;12.48;;;11.90;67.20;;;9.90;63.28;101744.59;4942024;29;20048;-81
2021/03/03 09:32:12;;;;;;;40.10;13.23;;;12.10;67.30;;;10.06;64.58;101738.53;4938361;29;20066;-82
2021/03/03 09:34:46;;;;;;;30.75;14.43;;;12.10;67.50;;;10.22;62.31;101738.69;4945442;29;20051;-81
2021/03/03 09:37:15;;;;;;;31.77;14.05;;;12.20;66.20;;;10.20;62.83;101740.72;4947653;29;20406;-81
2021/03/03 09:39:42;;;;;;;41.97;15.27;;;12.30;66.10;;;10.25;63.29;101737.56;4951173;29;20048;-81
2021/03/03 09:42:10;;;;;;;30.45;13.65;;;12.40;66.40;;;10.28;62.50;101738.13;4948545;29;20171;-81
2021/03/03 09:44:50;;;;;;;36.20;14.88;;;12.50;65.40;;;10.42;62.65;101744.94;4948786;29;20082;-81
2021/03/03 09:47:26;;;;;;;30.92;14.50;;;12.60;65.70;;;10.48;63.48;101727.97;4934471;29;20055;-82
2021/03/03 09:49:53;;;;;;;29.83;13.60;;;12.70;65.80;;;10.51;63.29;101735.84;4956039;29;20051;-82
2021/03/03 09:52:21;;;;;;;34.20;15.98;;;12.70;65.80;;;10.55;62.63;101729.06;4933718;29;20070;-82
2021/03/03 09:54:48;;;;;;;36.75;15.65;;;12.80;65.10;;;10.60;63.43;101728.59;4935706;29;20086;-82
2021/03/03 09:57:21;;;;;;;34.20;14.13;;;12.90;65.90;;;10.66;63.77;101735.28;4935479;29;20074;-81
2021/03/03 09:59:51;;;;;;;39.92;16.95;;;13.00;66.30;;;10.71;63.92;101733.81;4932041;29;20044;-82
2021/03/03 10:02:19;;;;;;;33.90;16.88;;;13.00;66.00;;;10.81;62.62;101722.84;4941356;29;20514;-82
2021/03/03 10:04:47;;;;;;;37.15;16.52;;;13.00;65.20;;;10.83;63.13;101720.81;4928557;29;20083;-82
2021/03/03 10:07:19;;;;;;;29.02;13.00;;;13.10;65.00;;;10.87;63.39;101724.97;4935172;29;20529;-82
2021/03/03 10:09:49;;;;;;;28.80;13.90;;;13.10;65.40;;;10.87;63.95;101724.97;4939680;29;20059;-82
2021/03/03 10:12:18;;;;;;;35.33;17.27;;;13.10;66.30;;;10.92;63.06;101724.47;4951473;29;20078;-82
2021/03/03 10:15:13;;;;;;;29.45;13.00;;;13.10;65.30;;;10.91;63.85;101723.63;4946582;28;20529;-82
2021/03/03 10:17:43;;;;;;;40.63;19.10;;;13.20;65.80;;;10.95;62.96;101727.75;4895069;29;20056;-82
2021/03/03 10:20:27;;;;;;;38.10;18.90;;;13.30;65.00;;;11.02;62.63;101729.84;4941089;29;20067;-82
2021/03/03 10:22:55;;;;;;;31.63;15.68;;;13.30;65.10;;;11.10;62.90;101729.88;4941610;29;20062;-82
2021/03/03 10:25:31;;;;;;;35.97;16.33;;;13.30;64.80;;;11.13;62.12;101733.16;4928140;29;20059;-82